sensor_id;sensor_type;location;lat;lon;timestamp;pressure;altitude;pressure_sealevel;temperature;humidity
3748;BME280;1889;50.058;8.688;2023-02-14T00:02:06;102226.97;;;9.37;57.04
3748;BME280;1889;50.058;8.688;2023-02-14T00:04:35;102219.33;;;9.49;56.92
3748;BME280;1889;50.058;8.688;2023-02-14T00:07:09;102219.64;;;9.43;57.10
3748;BME280;1889;50.058;8.688;2023-02-14T00:09:38;102216.55;;;9.42;57.00
3748;BME280;1889;50.058;8.688;2023-02-14T00:12:08;102225.20;;;9.36;57.13
3748;BME280;1889;50.058;8.688;2023-02-14T00:14:37;102225.78;;;9.43;56.80
3748;BME280;1889;50.058;8.688;2023-02-14T00:17:24;102224.84;;;9.40;56.82
3748;BME280;1889;50.058;8.688;2023-02-14T00:19:54;102231.77;;;9.36;56.78
3748;BME280;1889;50.058;8.688;2023-02-14T00:22:24;102223.17;;;9.25;57.13
3748;BME280;1889;50.058;8.688;2023-02-14T00:24:53;102227.74;;;9.33;57.00
3748;BME280;1889;50.058;8.688;2023-02-14T00:27:22;102233.56;;;9.18;57.36
3748;BME280;1889;50.058;8.688;2023-02-14T00:29:52;102236.05;;;9.33;56.96
3748;BME280;1889;50.058;8.688;2023-02-14T00:32:21;102227.11;;;9.23;57.08
3748;BME280;1889;50.058;8.688;2023-02-14T00:34:51;102225.12;;;9.13;57.43
3748;BME280;1889;50.058;8.688;2023-02-14T00:37:20;102219.49;;;9.15;57.16
3748;BME280;1889;50.058;8.688;2023-02-14T00:39:50;102222.28;;;9.23;56.87
3748;BME280;1889;50.058;8.688;2023-02-14T00:42:19;102224.70;;;9.13;56.98
3748;BME280;1889;50.058;8.688;2023-02-14T00:44:48;102222.92;;;9.12;56.99
3748;BME280;1889;50.058;8.688;2023-02-14T00:47:18;102221.31;;;9.19;56.76
3748;BME280;1889;50.058;8.688;2023-02-14T00:49:49;102222.16;;;9.18;56.74
3748;BME280;1889;50.058;8.688;2023-02-14T00:52:18;102223.94;;;9.19;56.67
3748;BME280;1889;50.058;8.688;2023-02-14T00:54:47;102219.19;;;9.22;56.57
3748;BME280;1889;50.058;8.688;2023-02-14T00:57:16;102222.38;;;9.07;56.96
3748;BME280;1889;50.058;8.688;2023-02-14T00:59:46;102222.80;;;9.06;56.96
3748;BME280;1889;50.058;8.688;2023-02-14T01:02:21;102226.62;;;9.02;57.08
3748;BME280;1889;50.058;8.688;2023-02-14T01:04:46;102223.52;;;8.99;57.03
3748;BME280;1889;50.058;8.688;2023-02-14T01:07:15;102221.23;;;8.96;57.10
3748;BME280;1889;50.058;8.688;2023-02-14T01:09:45;102225.59;;;8.95;57.14
3748;BME280;1889;50.058;8.688;2023-02-14T01:12:14;102223.94;;;8.99;56.92
3748;BME280;1889;50.058;8.688;2023-02-14T01:14:43;102221.32;;;9.00;56.84
3748;BME280;1889;50.058;8.688;2023-02-14T01:17:13;102222.08;;;8.95;56.92
3748;BME280;1889;50.058;8.688;2023-02-14T01:19:42;102223.14;;;9.03;56.58
3748;BME280;1889;50.058;8.688;2023-02-14T01:22:12;102221.16;;;8.93;56.85
3748;BME280;1889;50.058;8.688;2023-02-14T01:24:41;102221.69;;;8.78;57.23
3748;BME280;1889;50.058;8.688;2023-02-14T01:27:11;102220.80;;;8.77;57.22
3748;BME280;1889;50.058;8.688;2023-02-14T01:29:40;102222.76;;;8.86;56.97
3748;BME280;1889;50.058;8.688;2023-02-14T01:32:09;102221.27;;;8.78;57.13
3748;BME280;1889;50.058;8.688;2023-02-14T01:34:39;102218.51;;;8.72;57.25
3748;BME280;1889;50.058;8.688;2023-02-14T01:37:08;102222.91;;;8.73;57.20
3748;BME280;1889;50.058;8.688;2023-02-14T01:39:37;102228.58;;;8.73;57.22
3748;BME280;1889;50.058;8.688;2023-02-14T01:42:09;102224.33;;;8.59;57.51
3748;BME280;1889;50.058;8.688;2023-02-14T01:47:10;102227.38;;;8.59;57.40
3748;BME280;1889;50.058;8.688;2023-02-14T01:49:47;102219.45;;;8.57;57.46
3748;BME280;1889;50.058;8.688;2023-02-14T01:52:23;102225.45;;;8.70;56.91
3748;BME280;1889;50.058;8.688;2023-02-14T01:55:02;102229.44;;;8.55;57.31
3748;BME280;1889;50.058;8.688;2023-02-14T01:57:39;102233.89;;;8.40;57.69
3748;BME280;1889;50.058;8.688;2023-02-14T02:00:05;102227.33;;;8.40;57.67
3748;BME280;1889;50.058;8.688;2023-02-14T02:02:54;102233.61;;;8.47;57.42
3748;BME280;1889;50.058;8.688;2023-02-14T02:05:25;102224.85;;;8.46;57.35
3748;BME280;1889;50.058;8.688;2023-02-14T02:07:58;102223.77;;;8.55;56.99
3748;BME280;1889;50.058;8.688;2023-02-14T02:10:28;102222.59;;;8.43;57.28
3748;BME280;1889;50.058;8.688;2023-02-14T02:13:00;102226.17;;;8.30;57.63
3748;BME280;1889;50.058;8.688;2023-02-14T02:15:34;102224.15;;;8.53;56.79
3748;BME280;1889;50.058;8.688;2023-02-14T02:18:22;102221.06;;;8.52;56.64
3748;BME280;1889;50.058;8.688;2023-02-14T02:24:10;102211.83;;;8.32;57.23
3748;BME280;1889;50.058;8.688;2023-02-14T02:26:57;102202.89;;;8.25;57.41
3748;BME280;1889;50.058;8.688;2023-02-14T02:32:27;102210.42;;;8.13;57.51
3748;BME280;1889;50.058;8.688;2023-02-14T02:46:17;102205.17;;;8.13;57.20
3748;BME280;1889;50.058;8.688;2023-02-14T02:49:15;102203.30;;;8.08;57.12
3748;BME280;1889;50.058;8.688;2023-02-14T02:51:53;102204.23;;;8.11;56.49
3748;BME280;1889;50.058;8.688;2023-02-14T02:54:48;102211.38;;;7.99;56.75
3748;BME280;1889;50.058;8.688;2023-02-14T02:57:20;102212.23;;;7.83;57.25
3748;BME280;1889;50.058;8.688;2023-02-14T02:59:50;102207.73;;;7.77;57.52
3748;BME280;1889;50.058;8.688;2023-02-14T03:02:24;102213.23;;;7.88;57.26
3748;BME280;1889;50.058;8.688;2023-02-14T03:04:59;102213.00;;;7.94;57.01
3748;BME280;1889;50.058;8.688;2023-02-14T03:07:31;102213.28;;;7.89;57.06
3748;BME280;1889;50.058;8.688;2023-02-14T03:10:11;102214.89;;;8.00;56.71
3748;BME280;1889;50.058;8.688;2023-02-14T03:15:49;102220.93;;;7.97;56.63
3748;BME280;1889;50.058;8.688;2023-02-14T03:18:50;102221.71;;;7.93;56.70
3748;BME280;1889;50.058;8.688;2023-02-14T03:21:34;102215.19;;;7.79;57.17
3748;BME280;1889;50.058;8.688;2023-02-14T03:27:17;102212.66;;;7.66;57.45
3748;BME280;1889;50.058;8.688;2023-02-14T03:30:10;102213.24;;;7.72;57.34
3748;BME280;1889;50.058;8.688;2023-02-14T03:32:41;102215.91;;;7.89;56.65
3748;BME280;1889;50.058;8.688;2023-02-14T03:35:22;102212.34;;;7.70;57.17
3748;BME280;1889;50.058;8.688;2023-02-14T03:37:54;102208.83;;;7.85;56.71
3748;BME280;1889;50.058;8.688;2023-02-14T03:40:41;102215.38;;;7.70;56.95
3748;BME280;1889;50.058;8.688;2023-02-14T03:43:19;102217.59;;;7.56;57.25
3748;BME280;1889;50.058;8.688;2023-02-14T03:45:49;102222.42;;;7.26;57.64
3748;BME280;1889;50.058;8.688;2023-02-14T03:48:20;102220.90;;;7.05;58.11
3748;BME280;1889;50.058;8.688;2023-02-14T03:50:52;102218.36;;;6.94;58.41
3748;BME280;1889;50.058;8.688;2023-02-14T03:53:25;102216.87;;;6.87;58.52
3748;BME280;1889;50.058;8.688;2023-02-14T03:56:09;102219.72;;;6.81;58.62
3748;BME280;1889;50.058;8.688;2023-02-14T03:58:41;102221.45;;;6.80;58.61
3748;BME280;1889;50.058;8.688;2023-02-14T04:03:59;102223.47;;;6.89;58.42
3748;BME280;1889;50.058;8.688;2023-02-14T04:06:28;102226.84;;;7.13;57.55
3748;BME280;1889;50.058;8.688;2023-02-14T04:08:57;102221.28;;;6.90;57.78
3748;BME280;1889;50.058;8.688;2023-02-14T04:11:27;102220.50;;;6.93;57.79
3748;BME280;1889;50.058;8.688;2023-02-14T04:13:58;102228.54;;;6.84;57.97
3748;BME280;1889;50.058;8.688;2023-02-14T04:16:27;102229.30;;;6.95;57.60
3748;BME280;1889;50.058;8.688;2023-02-14T04:18:57;102230.23;;;7.11;56.74
3748;BME280;1889;50.058;8.688;2023-02-14T04:21:44;102233.46;;;7.02;57.05
3748;BME280;1889;50.058;8.688;2023-02-14T04:24:13;102230.73;;;6.99;57.11
3748;BME280;1889;50.058;8.688;2023-02-14T04:26:43;102232.34;;;6.94;57.33
3748;BME280;1889;50.058;8.688;2023-02-14T04:29:14;102230.73;;;6.99;57.32
3748;BME280;1889;50.058;8.688;2023-02-14T04:31:43;102230.97;;;7.07;57.03
3748;BME280;1889;50.058;8.688;2023-02-14T04:34:13;102232.32;;;7.22;56.64
3748;BME280;1889;50.058;8.688;2023-02-14T04:36:42;102240.89;;;7.17;56.76
3748;BME280;1889;50.058;8.688;2023-02-14T04:39:13;102239.34;;;7.23;56.48
3748;BME280;1889;50.058;8.688;2023-02-14T04:41:42;102234.03;;;7.20;56.56
3748;BME280;1889;50.058;8.688;2023-02-14T04:44:11;102232.49;;;7.13;56.80
3748;BME280;1889;50.058;8.688;2023-02-14T04:46:41;102236.91;;;7.15;56.68
3748;BME280;1889;50.058;8.688;2023-02-14T04:49:10;102232.33;;;7.08;56.83
3748;BME280;1889;50.058;8.688;2023-02-14T04:51:40;102234.06;;;7.08;57.00
3748;BME280;1889;50.058;8.688;2023-02-14T04:54:09;102231.55;;;7.11;57.12
3748;BME280;1889;50.058;8.688;2023-02-14T04:56:38;102233.45;;;7.16;56.99
3748;BME280;1889;50.058;8.688;2023-02-14T04:59:08;102236.86;;;7.14;57.22
3748;BME280;1889;50.058;8.688;2023-02-14T05:01:37;102239.35;;;7.09;57.49
3748;BME280;1889;50.058;8.688;2023-02-14T05:04:08;102246.73;;;7.08;57.73
3748;BME280;1889;50.058;8.688;2023-02-14T05:06:38;102246.77;;;7.24;57.31
3748;BME280;1889;50.058;8.688;2023-02-14T05:09:07;102244.52;;;7.22;57.41
3748;BME280;1889;50.058;8.688;2023-02-14T05:11:37;102244.58;;;7.09;57.82
3748;BME280;1889;50.058;8.688;2023-02-14T05:14:06;102244.04;;;7.05;58.14
3748;BME280;1889;50.058;8.688;2023-02-14T05:16:36;102248.50;;;7.23;57.95
3748;BME280;1889;50.058;8.688;2023-02-14T05:19:05;102249.63;;;7.17;58.21
3748;BME280;1889;50.058;8.688;2023-02-14T05:21:35;102248.38;;;7.05;58.67
3748;BME280;1889;50.058;8.688;2023-02-14T05:24:05;102248.47;;;7.36;58.26
3748;BME280;1889;50.058;8.688;2023-02-14T05:26:35;102250.47;;;7.16;58.59
3748;BME280;1889;50.058;8.688;2023-02-14T05:29:04;102247.30;;;7.26;58.69
3748;BME280;1889;50.058;8.688;2023-02-14T05:31:33;102248.97;;;7.24;58.74
3748;BME280;1889;50.058;8.688;2023-02-14T05:34:03;102249.81;;;7.23;59.01
3748;BME280;1889;50.058;8.688;2023-02-14T05:36:32;102248.27;;;7.44;58.89
3748;BME280;1889;50.058;8.688;2023-02-14T05:39:02;102251.13;;;7.68;58.25
3748;BME280;1889;50.058;8.688;2023-02-14T05:41:31;102247.15;;;7.66;58.29
3748;BME280;1889;50.058;8.688;2023-02-14T05:44:00;102251.65;;;7.70;58.12
3748;BME280;1889;50.058;8.688;2023-02-14T05:46:30;102244.53;;;7.66;58.30
3748;BME280;1889;50.058;8.688;2023-02-14T05:48:59;102239.25;;;7.35;59.00
3748;BME280;1889;50.058;8.688;2023-02-14T05:51:28;102243.45;;;7.44;59.08
3748;BME280;1889;50.058;8.688;2023-02-14T05:53:58;102243.02;;;7.74;58.44
3748;BME280;1889;50.058;8.688;2023-02-14T05:56:28;102237.87;;;7.77;58.31
3748;BME280;1889;50.058;8.688;2023-02-14T05:58:57;102243.02;;;7.74;58.34
3748;BME280;1889;50.058;8.688;2023-02-14T06:01:27;102245.00;;;7.83;58.31
3748;BME280;1889;50.058;8.688;2023-02-14T06:03:56;102243.17;;;7.80;58.41
3748;BME280;1889;50.058;8.688;2023-02-14T06:06:25;102239.44;;;7.86;58.41
3748;BME280;1889;50.058;8.688;2023-02-14T06:08:54;102247.55;;;7.50;59.08
3748;BME280;1889;50.058;8.688;2023-02-14T06:11:24;102245.94;;;7.55;59.37
3748;BME280;1889;50.058;8.688;2023-02-14T06:13:53;102243.65;;;7.36;60.08
3748;BME280;1889;50.058;8.688;2023-02-14T06:16:23;102241.84;;;7.49;59.83
3748;BME280;1889;50.058;8.688;2023-02-14T06:18:52;102244.53;;;7.82;59.07
3748;BME280;1889;50.058;8.688;2023-02-14T06:21:21;102243.63;;;7.50;59.98
3748;BME280;1889;50.058;8.688;2023-02-14T06:23:50;102240.55;;;6.92;61.57
3748;BME280;1889;50.058;8.688;2023-02-14T06:26:20;102244.68;;;7.26;61.16
3748;BME280;1889;50.058;8.688;2023-02-14T06:28:54;102244.54;;;7.36;60.73
3748;BME280;1889;50.058;8.688;2023-02-14T06:31:24;102247.33;;;7.42;60.70
3748;BME280;1889;50.058;8.688;2023-02-14T06:33:54;102245.45;;;7.38;60.85
3748;BME280;1889;50.058;8.688;2023-02-14T06:36:24;102245.23;;;7.16;61.48
3748;BME280;1889;50.058;8.688;2023-02-14T06:38:55;102250.27;;;7.39;60.99
3748;BME280;1889;50.058;8.688;2023-02-14T06:41:25;102251.88;;;7.34;61.03
3748;BME280;1889;50.058;8.688;2023-02-14T06:43:54;102243.13;;;7.33;61.29
3748;BME280;1889;50.058;8.688;2023-02-14T06:46:23;102250.61;;;7.65;60.52
3748;BME280;1889;50.058;8.688;2023-02-14T06:48:53;102251.28;;;7.58;60.68
3748;BME280;1889;50.058;8.688;2023-02-14T06:51:22;102251.38;;;7.61;60.64
3748;BME280;1889;50.058;8.688;2023-02-14T06:53:51;102249.00;;;7.40;61.20
3748;BME280;1889;50.058;8.688;2023-02-14T06:56:20;102249.23;;;7.78;60.43
3748;BME280;1889;50.058;8.688;2023-02-14T06:58:50;102246.25;;;7.65;60.28
3748;BME280;1889;50.058;8.688;2023-02-14T07:01:19;102242.48;;;7.56;60.92
3748;BME280;1889;50.058;8.688;2023-02-14T07:03:48;102246.77;;;7.52;60.89
3748;BME280;1889;50.058;8.688;2023-02-14T07:06:18;102243.78;;;7.70;60.65
3748;BME280;1889;50.058;8.688;2023-02-14T07:08:47;102248.47;;;7.36;61.50
3748;BME280;1889;50.058;8.688;2023-02-14T07:11:17;102253.46;;;7.43;61.49
3748;BME280;1889;50.058;8.688;2023-02-14T07:13:46;102247.55;;;7.50;61.33
3748;BME280;1889;50.058;8.688;2023-02-14T07:16:15;102252.44;;;7.68;60.96
3748;BME280;1889;50.058;8.688;2023-02-14T07:18:45;102249.48;;;7.41;61.80
3748;BME280;1889;50.058;8.688;2023-02-14T07:21:14;102249.25;;;7.79;60.61
3748;BME280;1889;50.058;8.688;2023-02-14T07:23:44;102248.17;;;7.41;60.98
3748;BME280;1889;50.058;8.688;2023-02-14T07:26:15;102248.92;;;7.23;62.02
3748;BME280;1889;50.058;8.688;2023-02-14T07:28:46;102247.25;;;7.55;61.45
3748;BME280;1889;50.058;8.688;2023-02-14T07:31:18;102251.50;;;7.36;61.59
3748;BME280;1889;50.058;8.688;2023-02-14T07:33:50;102246.00;;;7.72;60.85
3748;BME280;1889;50.058;8.688;2023-02-14T07:36:19;102248.77;;;7.77;60.28
3748;BME280;1889;50.058;8.688;2023-02-14T07:38:49;102244.53;;;7.97;59.73
3748;BME280;1889;50.058;8.688;2023-02-14T07:41:21;102246.52;;;7.90;59.79
3748;BME280;1889;50.058;8.688;2023-02-14T07:43:50;102252.59;;;7.58;60.59
3748;BME280;1889;50.058;8.688;2023-02-14T07:46:20;102254.27;;;7.70;60.56
3748;BME280;1889;50.058;8.688;2023-02-14T07:48:49;102258.94;;;7.36;61.07
3748;BME280;1889;50.058;8.688;2023-02-14T07:51:20;102249.70;;;7.94;59.82
3748;BME280;1889;50.058;8.688;2023-02-14T07:53:49;102249.19;;;8.08;59.25
3748;BME280;1889;50.058;8.688;2023-02-14T07:56:18;102253.87;;;7.42;61.02
3748;BME280;1889;50.058;8.688;2023-02-14T07:58:48;102250.56;;;7.63;60.78
3748;BME280;1889;50.058;8.688;2023-02-14T08:01:17;102250.50;;;7.92;59.89
3748;BME280;1889;50.058;8.688;2023-02-14T08:03:49;102259.95;;;7.71;60.15
3748;BME280;1889;50.058;8.688;2023-02-14T08:06:20;102257.77;;;7.26;61.81
3748;BME280;1889;50.058;8.688;2023-02-14T08:08:49;102253.73;;;7.52;61.14
3748;BME280;1889;50.058;8.688;2023-02-14T08:11:19;102244.19;;;6.83;62.78
3748;BME280;1889;50.058;8.688;2023-02-14T08:14:05;102248.16;;;6.58;64.56
3748;BME280;1889;50.058;8.688;2023-02-14T08:16:35;102247.15;;;7.08;62.96
3748;BME280;1889;50.058;8.688;2023-02-14T08:19:05;102248.91;;;7.21;62.29
3748;BME280;1889;50.058;8.688;2023-02-14T08:21:34;102250.89;;;7.16;62.45
3748;BME280;1889;50.058;8.688;2023-02-14T08:24:04;102251.48;;;7.50;61.78
3748;BME280;1889;50.058;8.688;2023-02-14T08:26:33;102252.47;;;7.53;61.29
3748;BME280;1889;50.058;8.688;2023-02-14T08:29:02;102254.13;;;7.36;61.86
3748;BME280;1889;50.058;8.688;2023-02-14T08:31:32;102251.68;;;7.42;61.81
3748;BME280;1889;50.058;8.688;2023-02-14T08:34:01;102262.45;;;7.37;61.62
3748;BME280;1889;50.058;8.688;2023-02-14T08:36:32;102257.73;;;7.55;61.49
3748;BME280;1889;50.058;8.688;2023-02-14T08:39:03;102251.03;;;7.80;60.59
3748;BME280;1889;50.058;8.688;2023-02-14T08:41:33;102258.03;;;7.50;61.03
3748;BME280;1889;50.058;8.688;2023-02-14T08:44:03;102254.96;;;7.64;61.04
3748;BME280;1889;50.058;8.688;2023-02-14T08:46:32;102258.47;;;7.65;60.74
3748;BME280;1889;50.058;8.688;2023-02-14T08:49:02;102253.59;;;7.77;60.37
3748;BME280;1889;50.058;8.688;2023-02-14T08:51:31;102253.91;;;7.89;59.92
3748;BME280;1889;50.058;8.688;2023-02-14T08:54:00;102247.78;;;7.89;60.16
3748;BME280;1889;50.058;8.688;2023-02-14T08:56:30;102251.66;;;7.87;60.34
3748;BME280;1889;50.058;8.688;2023-02-14T08:59:00;102247.45;;;8.08;59.88
3748;BME280;1889;50.058;8.688;2023-02-14T09:01:29;102248.20;;;7.88;59.83
3748;BME280;1889;50.058;8.688;2023-02-14T09:03:58;102253.56;;;7.17;61.61
3748;BME280;1889;50.058;8.688;2023-02-14T09:06:29;102245.59;;;7.43;61.00
3748;BME280;1889;50.058;8.688;2023-02-14T09:08:58;102251.55;;;7.67;60.73
3748;BME280;1889;50.058;8.688;2023-02-14T09:11:27;102245.98;;;8.02;59.69
3748;BME280;1889;50.058;8.688;2023-02-14T09:13:57;102244.95;;;7.97;59.95
3748;BME280;1889;50.058;8.688;2023-02-14T09:16:26;102241.38;;;7.93;60.13
3748;BME280;1889;50.058;8.688;2023-02-14T09:18:55;102242.45;;;8.17;59.63
3748;BME280;1889;50.058;8.688;2023-02-14T09:21:26;102238.40;;;8.30;59.34
3748;BME280;1889;50.058;8.688;2023-02-14T09:23:57;102233.09;;;8.27;59.15
3748;BME280;1889;50.058;8.688;2023-02-14T09:26:26;102235.52;;;8.35;59.06
3748;BME280;1889;50.058;8.688;2023-02-14T09:28:56;102235.20;;;8.57;58.25
3748;BME280;1889;50.058;8.688;2023-02-14T09:31:25;102234.88;;;8.62;58.13
3748;BME280;1889;50.058;8.688;2023-02-14T09:33:54;102230.61;;;8.49;58.38
3748;BME280;1889;50.058;8.688;2023-02-14T09:36:24;102238.81;;;8.62;57.82
3748;BME280;1889;50.058;8.688;2023-02-14T09:39:11;102229.77;;;8.68;57.58
3748;BME280;1889;50.058;8.688;2023-02-14T09:42:14;102235.06;;;8.70;57.42
3748;BME280;1889;50.058;8.688;2023-02-14T09:45:18;102233.91;;;8.09;58.80
3748;BME280;1889;50.058;8.688;2023-02-14T09:48:02;102231.45;;;8.48;58.26
3748;BME280;1889;50.058;8.688;2023-02-14T09:50:55;102234.50;;;8.64;57.71
3748;BME280;1889;50.058;8.688;2023-02-14T10:01:55;102233.52;;;8.42;57.72
3748;BME280;1889;50.058;8.688;2023-02-14T10:04:27;102234.04;;;8.30;58.08
3748;BME280;1889;50.058;8.688;2023-02-14T10:12:44;102234.31;;;8.24;58.73
3748;BME280;1889;50.058;8.688;2023-02-14T10:15:26;102234.36;;;8.41;58.49
3748;BME280;1889;50.058;8.688;2023-02-14T10:18:17;102233.98;;;8.62;57.83
3748;BME280;1889;50.058;8.688;2023-02-14T10:20:56;102234.31;;;8.57;57.50
3748;BME280;1889;50.058;8.688;2023-02-14T10:23:32;102237.23;;;7.86;59.82
3748;BME280;1889;50.058;8.688;2023-02-14T10:26:04;102238.16;;;8.36;58.62
3748;BME280;1889;50.058;8.688;2023-02-14T10:28:43;102236.29;;;7.99;58.89
3748;BME280;1889;50.058;8.688;2023-02-14T10:31:20;102240.47;;;8.09;59.17
3748;BME280;1889;50.058;8.688;2023-02-14T10:34:12;102235.58;;;8.38;58.60
3748;BME280;1889;50.058;8.688;2023-02-14T10:36:46;102236.38;;;8.51;58.37
3748;BME280;1889;50.058;8.688;2023-02-14T10:39:42;102238.94;;;8.67;58.01
3748;BME280;1889;50.058;8.688;2023-02-14T10:47:59;102229.83;;;9.07;56.24
3748;BME280;1889;50.058;8.688;2023-02-14T10:56:18;102225.02;;;8.03;58.79
3748;BME280;1889;50.058;8.688;2023-02-14T10:58:46;102221.45;;;8.00;58.98
3748;BME280;1889;50.058;8.688;2023-02-14T11:01:17;102218.42;;;8.51;58.02
3748;BME280;1889;50.058;8.688;2023-02-14T11:03:55;102213.94;;;8.83;56.96
3748;BME280;1889;50.058;8.688;2023-02-14T11:06:26;102207.34;;;9.01;56.29
3748;BME280;1889;50.058;8.688;2023-02-14T11:08:56;102201.84;;;8.53;57.35
3748;BME280;1889;50.058;8.688;2023-02-14T11:14:23;102204.08;;;8.93;56.69
3748;BME280;1889;50.058;8.688;2023-02-14T11:16:52;102201.20;;;8.80;57.01
3748;BME280;1889;50.058;8.688;2023-02-14T11:19:29;102195.28;;;8.53;57.75
3748;BME280;1889;50.058;8.688;2023-02-14T11:22:00;102193.45;;;8.87;57.20
3748;BME280;1889;50.058;8.688;2023-02-14T11:24:33;102183.44;;;9.08;56.54
3748;BME280;1889;50.058;8.688;2023-02-14T11:27:14;102183.56;;;9.14;56.33
3748;BME280;1889;50.058;8.688;2023-02-14T11:29:48;102171.70;;;9.12;56.19
3748;BME280;1889;50.058;8.688;2023-02-14T11:32:24;102172.29;;;9.19;56.21
3748;BME280;1889;50.058;8.688;2023-02-14T11:35:07;102171.25;;;9.33;55.71
3748;BME280;1889;50.058;8.688;2023-02-14T11:37:48;102159.89;;;9.34;55.86
3748;BME280;1889;50.058;8.688;2023-02-14T11:40:35;102159.00;;;9.34;55.84
3748;BME280;1889;50.058;8.688;2023-02-14T11:45:50;102157.58;;;8.31;57.85
3748;BME280;1889;50.058;8.688;2023-02-14T11:48:23;102155.50;;;8.54;57.83
3748;BME280;1889;50.058;8.688;2023-02-14T11:53:43;102158.48;;;8.16;58.99
3748;BME280;1889;50.058;8.688;2023-02-14T11:56:19;102157.67;;;8.35;57.80
3748;BME280;1889;50.058;8.688;2023-02-14T11:58:47;102149.08;;;8.07;59.13
3748;BME280;1889;50.058;8.688;2023-02-14T12:01:25;102146.22;;;8.49;58.20
3748;BME280;1889;50.058;8.688;2023-02-14T12:04:03;102148.57;;;8.76;57.58
3748;BME280;1889;50.058;8.688;2023-02-14T12:06:31;102142.13;;;8.80;57.55
3748;BME280;1889;50.058;8.688;2023-02-14T12:12:02;102135.28;;;9.07;57.42
3748;BME280;1889;50.058;8.688;2023-02-14T12:14:34;102133.99;;;8.50;58.00
3748;BME280;1889;50.058;8.688;2023-02-14T12:17:05;102129.45;;;8.43;58.79
3748;BME280;1889;50.058;8.688;2023-02-14T12:19:44;102125.98;;;8.83;58.23
3748;BME280;1889;50.058;8.688;2023-02-14T12:22:18;102124.70;;;9.04;57.47
3748;BME280;1889;50.058;8.688;2023-02-14T12:24:58;102123.55;;;8.71;58.12
3748;BME280;1889;50.058;8.688;2023-02-14T12:27:35;102111.72;;;9.12;57.35
3748;BME280;1889;50.058;8.688;2023-02-14T12:30:22;102110.91;;;9.14;57.39
3748;BME280;1889;50.058;8.688;2023-02-14T12:32:53;102108.05;;;9.49;56.68
3748;BME280;1889;50.058;8.688;2023-02-14T12:35:51;102106.27;;;9.23;56.10
3748;BME280;1889;50.058;8.688;2023-02-14T12:41:18;102107.48;;;9.64;56.08
3748;BME280;1889;50.058;8.688;2023-02-14T12:43:59;102106.48;;;9.35;56.22
3748;BME280;1889;50.058;8.688;2023-02-14T12:49:40;102097.72;;;8.51;58.44
3748;BME280;1889;50.058;8.688;2023-02-14T12:52:33;102086.27;;;9.09;57.28
3748;BME280;1889;50.058;8.688;2023-02-14T12:55:27;102090.22;;;9.54;56.13
3748;BME280;1889;50.058;8.688;2023-02-14T12:58:18;102080.17;;;9.82;55.32
3748;BME280;1889;50.058;8.688;2023-02-14T13:06:34;102075.50;;;9.89;54.64
3748;BME280;1889;50.058;8.688;2023-02-14T13:09:19;102073.59;;;9.55;54.79
3748;BME280;1889;50.058;8.688;2023-02-14T13:11:53;102074.74;;;9.23;56.48
3748;BME280;1889;50.058;8.688;2023-02-14T13:22:47;102052.33;;;8.97;56.39
3748;BME280;1889;50.058;8.688;2023-02-14T13:25:29;102047.69;;;9.29;56.39
3748;BME280;1889;50.058;8.688;2023-02-14T13:28:09;102041.36;;;9.67;55.52
3748;BME280;1889;50.058;8.688;2023-02-14T13:30:34;102044.37;;;9.88;55.30
3748;BME280;1889;50.058;8.688;2023-02-14T13:33:26;102038.43;;;10.02;55.19
3748;BME280;1889;50.058;8.688;2023-02-14T13:35:59;102040.95;;;10.20;54.82
3748;BME280;1889;50.058;8.688;2023-02-14T13:38:29;102034.18;;;10.39;54.36
3748;BME280;1889;50.058;8.688;2023-02-14T13:41:00;102030.11;;;10.61;53.59
3748;BME280;1889;50.058;8.688;2023-02-14T13:43:50;102024.94;;;10.68;53.43
3748;BME280;1889;50.058;8.688;2023-02-14T13:51:55;102023.30;;;10.80;52.40
3748;BME280;1889;50.058;8.688;2023-02-14T13:54:46;102020.35;;;10.23;53.49
3748;BME280;1889;50.058;8.688;2023-02-14T13:57:33;102015.28;;;10.70;52.34
3748;BME280;1889;50.058;8.688;2023-02-14T14:02:55;102012.67;;;10.38;53.63
3748;BME280;1889;50.058;8.688;2023-02-14T14:14:01;102003.26;;;10.54;54.11
3748;BME280;1889;50.058;8.688;2023-02-14T14:16:33;101999.30;;;10.55;54.17
3748;BME280;1889;50.058;8.688;2023-02-14T14:22:02;101997.31;;;10.08;53.80
3748;BME280;1889;50.058;8.688;2023-02-14T14:24:35;101993.73;;;10.03;54.71
3748;BME280;1889;50.058;8.688;2023-02-14T14:27:20;101989.82;;;10.34;54.18
3748;BME280;1889;50.058;8.688;2023-02-14T14:29:54;101993.16;;;10.22;53.39
3748;BME280;1889;50.058;8.688;2023-02-14T14:32:31;101989.87;;;10.09;54.63
3748;BME280;1889;50.058;8.688;2023-02-14T14:37:35;101979.50;;;10.88;53.57
3748;BME280;1889;50.058;8.688;2023-02-14T14:40:07;101985.55;;;11.18;52.90
3748;BME280;1889;50.058;8.688;2023-02-14T14:42:38;101989.08;;;11.21;53.24
3748;BME280;1889;50.058;8.688;2023-02-14T14:45:23;101975.25;;;11.46;52.47
3748;BME280;1889;50.058;8.688;2023-02-14T14:47:55;101979.59;;;11.40;52.71
3748;BME280;1889;50.058;8.688;2023-02-14T14:50:32;101969.67;;;11.62;51.64
3748;BME280;1889;50.058;8.688;2023-02-14T14:53:05;101965.72;;;11.13;52.17
3748;BME280;1889;50.058;8.688;2023-02-14T14:55:40;101963.30;;;11.34;52.17
3748;BME280;1889;50.058;8.688;2023-02-14T14:58:30;101965.42;;;10.46;52.42
3748;BME280;1889;50.058;8.688;2023-02-14T15:00:59;101953.05;;;10.76;53.03
3748;BME280;1889;50.058;8.688;2023-02-14T15:03:29;101956.30;;;10.55;53.10
3748;BME280;1889;50.058;8.688;2023-02-14T15:06:14;101958.52;;;10.94;52.80
3748;BME280;1889;50.058;8.688;2023-02-14T15:08:36;101946.53;;;11.26;52.00
3748;BME280;1889;50.058;8.688;2023-02-14T15:11:20;101944.42;;;11.38;52.01
3748;BME280;1889;50.058;8.688;2023-02-14T15:14:10;101942.34;;;11.53;51.70
3748;BME280;1889;50.058;8.688;2023-02-14T15:16:49;101934.94;;;11.61;51.48
3748;BME280;1889;50.058;8.688;2023-02-14T15:19:40;101930.70;;;11.78;50.63
3748;BME280;1889;50.058;8.688;2023-02-14T15:22:27;101929.71;;;11.69;50.80
3748;BME280;1889;50.058;8.688;2023-02-14T15:24:57;101934.15;;;11.73;50.43
3748;BME280;1889;50.058;8.688;2023-02-14T15:27:27;101930.09;;;11.61;50.75
3748;BME280;1889;50.058;8.688;2023-02-14T15:29:59;101934.03;;;11.56;50.87
3748;BME280;1889;50.058;8.688;2023-02-14T15:32:34;101931.41;;;11.07;51.71
3748;BME280;1889;50.058;8.688;2023-02-14T15:35:05;101931.02;;;11.11;51.70
3748;BME280;1889;50.058;8.688;2023-02-14T15:37:34;101936.43;;;11.29;51.29
3748;BME280;1889;50.058;8.688;2023-02-14T15:40:06;101937.27;;;11.23;51.20
3748;BME280;1889;50.058;8.688;2023-02-14T15:42:39;101928.05;;;11.23;51.51